ADDS METAR Data INFO
IDs: Format: Raw Decoded Include TAF

Data at: 1511 UTC 21 Feb 2018

METAR for:KCGC (Crystal River Arpt, FL, US)
Text:KCGC 211435Z AUTO 12006KT 10SM SCT018 26/20 A3040 RMK AO2
Temperature: 26.0°C ( 79°F)
Dewpoint: 20.0°C ( 68°F) [RH = 70%]
Pressure (altimeter):30.40 inches Hg (1029.5 mb)
Winds:from the ESE (120 degrees) at 7 MPH (6 knots; 3.1 m/s)
Visibility:10 or more sm (16+ km)
Ceiling:at least 12,000 feet AGL
Clouds: scattered clouds at 1800 feet AGL
QC Flag:automated observation with no human augmentation